Axis, Alabama
Current Conditions -  °F | °C
As of 4:53 AM on Wednesday 26 Nov 2014 (Local Time) from KBFM Reporting Station
Clear Clear  
Wind Chill: 31°   Ceiling: Unl
Heat Index: 38°   Visibility: 10mi
Dew Point: 29°   Wind: 9mph
Humidity: 70%   Direction: 330°NNW
Pressure: 30.2"   Gusts: NA
Location:  30.93°N, 88.03°W
Report Text: KBFM 261053Z 33008KT 10SM CLR 03/M02 A3020 RMK AO2 SLP227 T00331017
Loading
Personal Weather Stations






























Interactive Weather Map New forecast layout! Learn more

10-Day Weather Forecast

Advertisements
Track Severe Weather on mobile